createdAt,value
2019-02-16T00:02:25.194Z,2.30
2019-02-16T00:04:53.608Z,2.20
2019-02-16T00:07:22.026Z,2.20
2019-02-16T00:09:50.432Z,2.20
2019-02-16T00:12:18.928Z,2.20
2019-02-16T00:14:47.418Z,2.20
2019-02-16T00:17:15.835Z,2.20
2019-02-16T00:19:44.266Z,2.20
2019-02-16T00:22:12.688Z,2.30
2019-02-16T00:24:41.111Z,2.20
2019-02-16T00:27:09.543Z,2.20
2019-02-16T00:29:37.950Z,2.20
2019-02-16T00:32:06.385Z,2.20
2019-02-16T00:34:34.803Z,2.30
2019-02-16T00:37:03.228Z,2.30
2019-02-16T00:39:31.646Z,2.30
2019-02-16T00:42:00.083Z,2.30
2019-02-16T00:44:30.177Z,2.20
2019-02-16T00:46:58.834Z,2.30
2019-02-16T00:49:27.267Z,2.20
2019-02-16T00:51:55.697Z,2.10
2019-02-16T00:54:24.109Z,2.20
2019-02-16T00:56:52.544Z,2.20
2019-02-16T00:59:20.970Z,2.10
2019-02-16T01:01:50.682Z,2.10
2019-02-16T01:04:19.114Z,2.20
2019-02-16T01:06:47.526Z,2.20
2019-02-16T01:09:15.956Z,2.10
2019-02-16T01:11:44.364Z,2.00
2019-02-16T01:14:12.799Z,2.10
2019-02-16T01:16:41.196Z,2.00
2019-02-16T01:19:09.616Z,2.00
2019-02-16T01:21:38.054Z,2.00
2019-02-16T01:24:06.464Z,1.90
2019-02-16T01:26:34.890Z,1.90
2019-02-16T01:29:03.460Z,1.80
2019-02-16T01:31:31.953Z,1.90
2019-02-16T01:34:00.440Z,1.80
2019-02-16T01:36:28.919Z,1.80
2019-02-16T01:38:57.316Z,1.90
2019-02-16T01:41:25.740Z,1.80
2019-02-16T01:43:54.178Z,1.70
2019-02-16T01:46:22.714Z,1.60
2019-02-16T01:48:51.184Z,1.70
2019-02-16T01:51:19.642Z,1.60
2019-02-16T01:53:48.090Z,1.60
2019-02-16T01:56:16.521Z,1.60
2019-02-16T01:58:44.924Z,1.60
2019-02-16T02:01:13.367Z,1.70
2019-02-16T02:03:41.786Z,1.70
2019-02-16T02:06:10.210Z,1.70
2019-02-16T02:08:38.632Z,1.60
2019-02-16T02:11:07.715Z,1.60
2019-02-16T02:13:36.143Z,1.60
2019-02-16T02:16:04.643Z,1.60
2019-02-16T02:18:33.078Z,1.60
2019-02-16T02:21:01.491Z,1.60
2019-02-16T02:23:29.896Z,1.60
2019-02-16T02:25:58.334Z,1.60
2019-02-16T02:28:26.746Z,1.60
2019-02-16T02:30:55.155Z,1.60
2019-02-16T02:33:23.569Z,1.60
2019-02-16T02:35:51.983Z,1.80
2019-02-16T02:38:20.397Z,1.70
2019-02-16T02:40:48.847Z,1.70
2019-02-16T02:43:17.254Z,1.60
2019-02-16T02:45:45.680Z,1.50
2019-02-16T02:48:14.092Z,1.50
2019-02-16T02:50:42.516Z,1.50
2019-02-16T02:53:10.923Z,1.50
2019-02-16T02:55:39.362Z,1.50
2019-02-16T02:58:07.762Z,1.40
2019-02-16T03:00:36.198Z,1.40
2019-02-16T03:03:04.610Z,1.50
2019-02-16T03:05:33.086Z,1.50
2019-02-16T03:08:01.595Z,1.50
2019-02-16T03:10:30.074Z,1.50
2019-02-16T03:12:58.503Z,1.50
2019-02-16T03:15:26.909Z,1.40
2019-02-16T03:17:55.336Z,1.40
2019-02-16T03:20:23.751Z,1.40
2019-02-16T03:23:12.716Z,1.50
2019-02-16T03:25:43.638Z,1.60
2019-02-16T03:28:30.207Z,1.50
2019-02-16T03:31:27.203Z,1.50
2019-02-16T03:34:15.170Z,1.40
2019-02-16T03:36:49.349Z,1.40
2019-02-16T03:39:17.867Z,1.40
2019-02-16T03:41:46.285Z,1.40
2019-02-16T03:44:14.783Z,1.40
2019-02-16T03:46:43.219Z,1.40
2019-02-16T03:49:11.718Z,1.40
2019-02-16T03:51:40.133Z,1.40
2019-02-16T03:54:08.557Z,1.50
2019-02-16T03:56:37.828Z,1.50
2019-02-16T03:59:06.236Z,1.50
2019-02-16T04:01:34.680Z,1.40
2019-02-16T04:04:03.111Z,1.40
2019-02-16T04:06:31.549Z,1.40
2019-02-16T04:08:59.960Z,1.30
2019-02-16T04:11:28.377Z,1.30
2019-02-16T04:13:56.786Z,1.30
2019-02-16T04:16:25.190Z,1.30
2019-02-16T04:18:53.644Z,1.30
2019-02-16T04:21:22.064Z,1.30
2019-02-16T04:23:50.513Z,1.30
2019-02-16T04:26:18.910Z,1.30
2019-02-16T04:28:47.395Z,1.40
2019-02-16T04:31:15.854Z,1.30
2019-02-16T04:33:44.275Z,1.30
2019-02-16T04:36:12.687Z,1.30
2019-02-16T04:38:41.115Z,1.40
2019-02-16T04:41:09.531Z,1.30
2019-02-16T04:43:37.920Z,1.40
2019-02-16T04:46:06.367Z,1.30
2019-02-16T04:48:34.781Z,1.30
2019-02-16T04:51:03.210Z,1.20
2019-02-16T04:53:31.621Z,1.20
2019-02-16T04:56:00.044Z,1.20
2019-02-16T04:58:28.460Z,1.20
2019-02-16T05:00:56.903Z,1.20
2019-02-16T05:03:25.315Z,1.20
2019-02-16T05:05:53.742Z,1.20
2019-02-16T05:08:22.159Z,1.10
2019-02-16T05:10:50.593Z,0.90
2019-02-16T05:13:19.015Z,0.80
2019-02-16T05:15:47.427Z,0.80
2019-02-16T05:18:15.892Z,0.80
2019-02-16T05:20:44.317Z,0.90
2019-02-16T05:23:12.735Z,0.80
2019-02-16T05:25:41.175Z,0.70
2019-02-16T05:28:09.592Z,0.70
2019-02-16T05:30:38.010Z,0.70
2019-02-16T05:33:06.486Z,0.70
2019-02-16T05:35:34.898Z,0.80
2019-02-16T05:38:03.318Z,0.80
2019-02-16T05:40:31.745Z,0.80
2019-02-16T05:43:00.160Z,0.80
2019-02-16T05:45:28.597Z,0.80
2019-02-16T05:47:57.020Z,0.80
2019-02-16T05:50:25.451Z,0.80
2019-02-16T05:52:54.734Z,1.00
2019-02-16T05:55:23.271Z,1.00
2019-02-16T05:57:51.685Z,1.00
2019-02-16T06:00:21.737Z,1.00
2019-02-16T06:02:50.165Z,1.00
2019-02-16T06:05:18.594Z,1.10
2019-02-16T06:07:47.075Z,1.10
2019-02-16T06:10:15.512Z,1.10
2019-02-16T06:12:43.949Z,1.20
2019-02-16T06:15:12.494Z,1.20
2019-02-16T06:17:40.920Z,1.20
2019-02-16T06:20:09.668Z,1.20
2019-02-16T06:22:38.102Z,1.30
2019-02-16T06:25:06.769Z,1.30
2019-02-16T06:27:35.181Z,1.40
2019-02-16T06:30:04.250Z,1.40
2019-02-16T06:32:32.674Z,1.40
2019-02-16T06:35:08.272Z,1.40
2019-02-16T06:37:36.773Z,1.40
2019-02-16T06:40:07.043Z,1.40
2019-02-16T06:42:35.488Z,1.40
2019-02-16T06:45:04.540Z,1.40
2019-02-16T06:47:32.944Z,1.50
2019-02-16T06:50:01.378Z,1.50
2019-02-16T06:52:29.828Z,1.50
2019-02-16T06:54:58.294Z,1.50
2019-02-16T06:57:28.301Z,1.30
2019-02-16T06:59:56.790Z,1.40
2019-02-16T07:02:26.468Z,1.30
2019-02-16T07:04:54.884Z,1.30
2019-02-16T07:07:23.306Z,1.30
2019-02-16T07:09:51.731Z,1.20
2019-02-16T07:12:20.168Z,1.30
2019-02-16T07:14:48.568Z,1.20
2019-02-16T07:17:27.128Z,1.20
2019-02-16T07:19:55.811Z,1.20
2019-02-16T07:22:24.239Z,1.10
2019-02-16T07:24:52.672Z,1.10
2019-02-16T07:27:21.106Z,1.10
2019-02-16T07:29:49.543Z,1.10
2019-02-16T07:32:17.972Z,1.10
2019-02-16T07:34:46.382Z,1.20
2019-02-16T07:37:14.818Z,1.10
2019-02-16T07:39:43.242Z,1.20
2019-02-16T07:42:11.695Z,1.30
2019-02-16T07:44:47.701Z,1.40
2019-02-16T07:47:17.760Z,1.50
2019-02-16T07:49:47.833Z,1.50
2019-02-16T07:52:17.895Z,1.60
2019-02-16T07:55:04.475Z,1.70
2019-02-16T07:57:44.544Z,1.90
2019-02-16T08:00:17.577Z,2.10
2019-02-16T08:02:50.621Z,2.20
2019-02-16T08:05:23.553Z,2.40
2019-02-16T08:08:09.728Z,2.50
2019-02-16T08:10:39.790Z,2.60
2019-02-16T08:13:15.810Z,2.70
2019-02-16T08:15:45.874Z,2.80
2019-02-16T08:18:21.626Z,2.90
2019-02-16T08:21:07.555Z,2.90
2019-02-16T08:23:46.188Z,3.10
2019-02-16T08:26:32.533Z,3.20
2019-02-16T08:29:05.381Z,3.40
2019-02-16T08:31:50.625Z,3.60
2019-02-16T08:34:20.708Z,3.60
2019-02-16T08:36:56.790Z,3.70
2019-02-16T08:39:26.875Z,3.80
2019-02-16T08:42:08.658Z,3.90
2019-02-16T08:44:41.421Z,4.00
2019-02-16T08:47:20.636Z,4.20
2019-02-16T08:49:56.367Z,4.40
2019-02-16T08:52:26.427Z,4.50
2019-02-16T08:54:56.494Z,4.70
2019-02-16T08:57:32.798Z,4.80
2019-02-16T09:00:02.854Z,4.90
2019-02-16T09:02:48.912Z,5.00
2019-02-16T09:05:27.807Z,5.10
2019-02-16T09:08:00.585Z,5.10
2019-02-16T09:10:39.460Z,5.20
2019-02-16T09:13:09.522Z,5.30
2019-02-16T09:16:01.616Z,5.30
2019-02-16T09:18:40.827Z,5.40
2019-02-16T09:21:14.650Z,5.50
2019-02-16T09:23:58.632Z,5.60
2019-02-16T09:26:21.366Z,5.70
2019-02-16T09:29:13.321Z,5.80
2019-02-16T09:31:46.287Z,5.80
2019-02-16T09:34:19.062Z,6.00
2019-02-16T09:36:49.121Z,6.10
2019-02-16T09:39:35.138Z,6.30
2019-02-16T09:42:21.226Z,6.40
2019-02-16T09:44:55.061Z,6.80
2019-02-16T09:47:37.605Z,7.00
2019-02-16T09:50:08.320Z,7.20
2019-02-16T09:52:38.370Z,7.30
2019-02-16T09:55:17.855Z,7.40
2019-02-16T09:57:47.940Z,7.50
2019-02-16T10:00:36.372Z,7.80
2019-02-16T10:03:22.918Z,8.00
2019-02-16T10:05:53.934Z,8.10
2019-02-16T10:08:39.282Z,8.30
2019-02-16T10:11:12.227Z,8.50
2019-02-16T10:13:51.176Z,8.60
2019-02-16T10:16:36.069Z,8.70
2019-02-16T10:19:15.371Z,8.80
2019-02-16T10:21:47.922Z,9.00
2019-02-16T10:24:34.410Z,9.20
2019-02-16T10:27:16.398Z,9.40
2019-02-16T10:29:49.426Z,9.50
2019-02-16T10:32:19.502Z,9.60
2019-02-16T10:35:01.852Z,9.80
2019-02-16T10:37:34.642Z,9.90
2019-02-16T10:40:21.550Z,10.10
2019-02-16T10:43:00.534Z,10.20
2019-02-16T10:45:47.108Z,10.30
2019-02-16T10:48:43.566Z,10.40
2019-02-16T10:51:16.240Z,10.50
2019-02-16T10:53:55.490Z,10.60
2019-02-16T10:56:28.739Z,10.70
2019-02-16T10:59:11.159Z,10.70
2019-02-16T11:01:41.218Z,10.70
2019-02-16T11:04:16.862Z,10.70
2019-02-16T11:06:46.982Z,10.80
2019-02-16T11:09:22.993Z,10.90
2019-02-16T11:11:53.070Z,10.80
2019-02-16T11:14:29.341Z,10.70
2019-02-16T11:17:16.099Z,10.80
2019-02-16T11:20:02.400Z,10.80
2019-02-16T11:22:32.540Z,10.90
2019-02-16T11:25:18.565Z,11.00
2019-02-16T11:27:48.658Z,11.00
2019-02-16T11:30:18.722Z,11.00
2019-02-16T11:32:54.818Z,11.00
2019-02-16T11:35:24.853Z,11.10
2019-02-16T11:38:00.446Z,11.10
2019-02-16T11:40:33.849Z,11.10
2019-02-16T11:43:03.926Z,11.20
2019-02-16T11:45:36.735Z,11.20
2019-02-16T11:48:06.839Z,11.30
2019-02-16T11:50:45.829Z,11.40
2019-02-16T11:53:18.632Z,11.50
2019-02-16T11:55:57.996Z,11.40
2019-02-16T11:58:33.935Z,11.50
2019-02-16T12:01:06.742Z,11.70
2019-02-16T12:03:39.926Z,11.70
2019-02-16T12:06:26.300Z,11.80
2019-02-16T12:09:08.308Z,11.90
2019-02-16T12:11:50.314Z,12.00
2019-02-16T12:14:23.443Z,12.10
2019-02-16T12:16:53.535Z,12.20
2019-02-16T12:19:29.362Z,12.20
2019-02-16T12:22:02.383Z,12.30
2019-02-16T12:24:32.529Z,12.40
2019-02-16T12:27:08.734Z,12.50
2019-02-16T12:29:51.023Z,12.50
2019-02-16T12:32:32.876Z,12.60
2019-02-16T12:35:02.942Z,12.70
2019-02-16T12:37:33.035Z,12.80
2019-02-16T12:40:03.088Z,12.80
2019-02-16T12:42:33.187Z,12.90
2019-02-16T12:45:09.433Z,12.90
2019-02-16T12:47:54.717Z,12.90
2019-02-16T12:50:24.786Z,13.10
2019-02-16T12:53:00.387Z,13.20
2019-02-16T12:55:32.863Z,13.20
2019-02-16T12:58:02.933Z,13.40
2019-02-16T13:00:32.998Z,13.40
2019-02-16T13:03:11.930Z,13.50
2019-02-16T13:05:50.748Z,13.50
2019-02-16T13:08:20.854Z,13.60
2019-02-16T13:10:50.979Z,13.70
2019-02-16T13:13:23.759Z,13.70
2019-02-16T13:16:02.736Z,13.80
2019-02-16T13:18:38.824Z,13.90
2019-02-16T13:21:17.611Z,13.90
2019-02-16T13:23:56.727Z,14.00
2019-02-16T13:26:27.156Z,14.00
2019-02-16T13:28:57.248Z,13.90
2019-02-16T13:31:33.097Z,13.90
2019-02-16T13:34:05.756Z,13.90
2019-02-16T13:36:35.806Z,13.80
2019-02-16T13:39:13.983Z,13.80
2019-02-16T13:41:44.109Z,13.70
2019-02-16T13:44:16.895Z,13.80
2019-02-16T13:46:49.784Z,13.80
2019-02-16T13:49:19.854Z,13.90
2019-02-16T13:51:58.727Z,14.00
2019-02-16T13:54:31.769Z,14.00
2019-02-16T13:57:07.840Z,13.90
2019-02-16T13:59:47.009Z,14.00
2019-02-16T14:02:19.754Z,14.00
2019-02-16T14:05:01.869Z,14.00
2019-02-16T14:07:43.993Z,13.90
2019-02-16T14:10:29.177Z,14.00
2019-02-16T14:12:59.341Z,14.00
2019-02-16T14:15:29.660Z,13.90
2019-02-16T14:17:58.204Z,13.90
2019-02-16T14:20:26.634Z,13.80
2019-02-16T14:22:55.041Z,13.50
2019-02-16T14:25:25.136Z,13.20
2019-02-16T14:27:53.551Z,13.00
2019-02-16T14:30:22.057Z,12.80
2019-02-16T14:32:50.838Z,12.50
2019-02-16T14:35:19.300Z,12.30
2019-02-16T14:37:54.986Z,12.30
2019-02-16T14:40:25.130Z,12.10
2019-02-16T14:42:53.638Z,11.90
2019-02-16T14:45:22.140Z,11.80
2019-02-16T14:47:50.600Z,11.70
2019-02-16T14:50:19.304Z,11.70
2019-02-16T14:52:47.806Z,11.60
2019-02-16T14:55:18.274Z,11.50
2019-02-16T14:57:46.707Z,11.30
2019-02-16T15:00:15.134Z,11.20
2019-02-16T15:02:43.570Z,11.20
2019-02-16T15:05:11.992Z,11.10
2019-02-16T15:07:40.416Z,11.00
2019-02-16T15:10:10.982Z,11.00
2019-02-16T15:12:39.395Z,11.00
2019-02-16T15:15:09.787Z,10.90
2019-02-16T15:17:38.215Z,10.70
2019-02-16T15:20:09.739Z,10.70
2019-02-16T15:22:38.146Z,10.60
2019-02-16T15:25:10.686Z,10.40
2019-02-16T15:27:39.596Z,10.30
2019-02-16T15:30:16.647Z,10.20
2019-02-16T15:32:45.064Z,10.10
2019-02-16T15:35:13.566Z,10.10
2019-02-16T15:37:41.978Z,10.00
2019-02-16T15:40:11.681Z,9.90
2019-02-16T15:42:40.115Z,9.80
2019-02-16T15:45:11.169Z,9.80
2019-02-16T15:47:39.604Z,9.70
2019-02-16T15:50:10.472Z,9.60
2019-02-16T15:52:38.962Z,9.50
2019-02-16T15:55:09.635Z,9.50
2019-02-16T15:57:38.063Z,9.40
2019-02-16T16:00:10.504Z,9.30
2019-02-16T16:02:38.969Z,9.20
2019-02-16T16:05:07.546Z,9.20
2019-02-16T16:07:36.033Z,9.10
2019-02-16T16:10:22.038Z,9.00
2019-02-16T16:12:52.092Z,9.00
2019-02-16T16:15:22.209Z,8.90
2019-02-16T16:18:08.799Z,8.80
2019-02-16T16:20:47.950Z,8.80
2019-02-16T16:23:20.881Z,8.70
2019-02-16T16:25:50.929Z,8.60
2019-02-16T16:28:26.810Z,8.60
2019-02-16T16:30:56.898Z,8.50
2019-02-16T16:33:43.211Z,8.50
2019-02-16T16:36:13.278Z,8.40
2019-02-16T16:38:52.338Z,8.40
2019-02-16T16:41:25.383Z,8.30
2019-02-16T16:44:07.826Z,8.20
2019-02-16T16:46:37.902Z,8.20
2019-02-16T16:49:24.266Z,8.10
2019-02-16T16:52:10.978Z,8.10
2019-02-16T16:54:42.135Z,8.00
2019-02-16T16:57:12.202Z,7.90
2019-02-16T17:00:00.533Z,7.80
2019-02-16T17:02:46.977Z,7.80
2019-02-16T17:05:17.044Z,7.70
2019-02-16T17:07:47.115Z,7.60
2019-02-16T17:10:33.547Z,7.60
2019-02-16T17:13:19.930Z,7.60
2019-02-16T17:15:54.578Z,7.60
2019-02-16T17:18:33.935Z,7.50
2019-02-16T17:21:22.775Z,7.40
2019-02-16T17:24:01.771Z,7.40
2019-02-16T17:26:44.096Z,7.30
2019-02-16T17:29:19.671Z,7.30
2019-02-16T17:31:57.595Z,7.30
2019-02-16T17:34:27.666Z,7.20
2019-02-16T17:37:03.648Z,7.10
2019-02-16T17:39:59.747Z,7.10
2019-02-16T17:42:45.691Z,7.10
2019-02-16T17:45:21.374Z,7.00
2019-02-16T17:47:54.578Z,7.00
2019-02-16T17:50:24.635Z,6.90
2019-02-16T17:53:10.956Z,6.90
2019-02-16T17:55:50.105Z,6.80
2019-02-16T17:58:29.233Z,6.80
2019-02-16T18:01:02.294Z,6.80
2019-02-16T18:03:35.270Z,6.70
2019-02-16T18:06:06.891Z,6.70
2019-02-16T18:08:36.938Z,6.70
2019-02-16T18:11:07.095Z,6.60
2019-02-16T18:13:39.830Z,6.60
2019-02-16T18:16:09.875Z,6.60
2019-02-16T18:18:39.938Z,6.50
2019-02-16T18:21:09.987Z,6.50
2019-02-16T18:23:43.097Z,6.50
2019-02-16T18:26:25.014Z,6.50
2019-02-16T18:29:11.330Z,6.40
2019-02-16T18:31:47.412Z,6.40
2019-02-16T18:34:34.135Z,6.40
2019-02-16T18:37:06.929Z,6.40
2019-02-16T18:39:37.454Z,6.30
2019-02-16T18:42:13.583Z,6.30
2019-02-16T18:44:58.730Z,6.30
2019-02-16T18:47:28.842Z,6.30
2019-02-16T18:49:58.915Z,6.20
2019-02-16T18:52:29.047Z,6.30
2019-02-16T18:54:59.129Z,6.20
2019-02-16T18:57:34.957Z,6.20
2019-02-16T19:00:11.854Z,6.10
2019-02-16T19:02:42.424Z,6.10
2019-02-16T19:05:21.754Z,6.10
2019-02-16T19:07:51.819Z,6.10
2019-02-16T19:10:24.287Z,6.00
2019-02-16T19:12:54.362Z,6.00
2019-02-16T19:15:39.777Z,6.00
2019-02-16T19:18:21.803Z,6.00
2019-02-16T19:20:51.868Z,5.90
2019-02-16T19:23:34.210Z,5.90
2019-02-16T19:26:10.454Z,5.90
2019-02-16T19:28:52.732Z,5.90
2019-02-16T19:31:31.607Z,5.90
2019-02-16T19:34:04.398Z,5.80
2019-02-16T19:36:34.458Z,5.80
2019-02-16T19:39:21.019Z,5.80
2019-02-16T19:41:51.073Z,5.80
2019-02-16T19:44:21.113Z,5.80
2019-02-16T19:46:51.193Z,5.70
2019-02-16T19:49:23.715Z,5.80
2019-02-16T19:51:53.772Z,5.70
2019-02-16T19:54:23.841Z,5.70
2019-02-16T19:56:53.884Z,5.70
2019-02-16T19:59:26.850Z,5.70
2019-02-16T20:02:02.898Z,5.70
2019-02-16T20:04:50.116Z,5.80
2019-02-16T20:07:22.801Z,5.80
2019-02-16T20:10:04.644Z,5.70
2019-02-16T20:12:34.702Z,5.70
2019-02-16T20:15:04.746Z,5.70
2019-02-16T20:17:40.761Z,5.70
2019-02-16T20:20:27.488Z,5.70
2019-02-16T20:23:00.216Z,5.80
2019-02-16T20:25:30.261Z,5.80
2019-02-16T20:28:03.149Z,5.80
2019-02-16T20:30:42.381Z,5.70
2019-02-16T20:33:12.463Z,5.70
2019-02-16T20:35:45.502Z,5.70
2019-02-16T20:38:18.200Z,5.70
2019-02-16T20:40:51.240Z,5.60
2019-02-16T20:43:21.294Z,5.70
2019-02-16T20:45:51.339Z,5.70
2019-02-16T20:48:27.593Z,5.60
2019-02-16T20:51:03.781Z,5.60
2019-02-16T20:53:33.869Z,5.60
2019-02-16T20:56:03.947Z,5.60
2019-02-16T20:58:42.800Z,5.50
2019-02-16T21:01:24.516Z,5.50
2019-02-16T21:04:10.884Z,5.50
2019-02-16T21:06:43.947Z,5.40
2019-02-16T21:09:13.982Z,5.40
2019-02-16T21:11:44.056Z,5.30
2019-02-16T21:14:14.078Z,5.30
2019-02-16T21:16:47.423Z,5.30
2019-02-16T21:19:32.797Z,5.30
2019-02-16T21:22:17.849Z,5.30
2019-02-16T21:24:57.134Z,5.20
2019-02-16T21:27:29.950Z,5.30
2019-02-16T21:30:15.368Z,5.10
2019-02-16T21:32:45.450Z,5.10
2019-02-16T21:35:32.038Z,5.10
2019-02-16T21:38:02.119Z,5.00
2019-02-16T21:40:32.181Z,5.00
2019-02-16T21:43:05.071Z,5.00
2019-02-16T21:45:46.846Z,5.00
2019-02-16T21:48:25.291Z,5.00
2019-02-16T21:51:04.136Z,4.90
2019-02-16T21:53:34.186Z,5.00
2019-02-16T21:56:10.018Z,4.90
2019-02-16T21:58:55.974Z,4.90
2019-02-16T22:01:31.742Z,4.80
2019-02-16T22:04:04.764Z,4.80
2019-02-16T22:06:34.843Z,4.70
2019-02-16T22:09:21.768Z,4.70
2019-02-16T22:11:51.831Z,4.70
2019-02-16T22:14:20.263Z,4.60
2019-02-16T22:16:48.683Z,4.60
2019-02-16T22:19:17.102Z,4.60
2019-02-16T22:21:45.552Z,4.60
2019-02-16T22:24:13.967Z,4.50
2019-02-16T22:26:42.372Z,4.50
2019-02-16T22:29:10.813Z,4.60
2019-02-16T22:31:39.280Z,4.40
2019-02-16T22:34:07.677Z,4.40
2019-02-16T22:36:36.121Z,4.50
2019-02-16T22:39:05.611Z,4.40
2019-02-16T22:41:34.100Z,4.40
2019-02-16T22:44:02.543Z,4.40
2019-02-16T22:46:31.055Z,4.30
2019-02-16T22:48:59.641Z,4.30
2019-02-16T22:51:28.419Z,4.30
2019-02-16T22:53:56.903Z,4.30
2019-02-16T22:56:25.594Z,4.20
2019-02-16T22:58:54.064Z,4.20
2019-02-16T23:01:22.830Z,4.20
2019-02-16T23:03:51.301Z,4.10
2019-02-16T23:06:19.759Z,4.10
2019-02-16T23:08:48.335Z,4.00
2019-02-16T23:11:16.838Z,4.00
2019-02-16T23:13:45.251Z,4.00
2019-02-16T23:16:13.677Z,4.00
2019-02-16T23:18:43.179Z,4.00
2019-02-16T23:21:11.952Z,4.00
2019-02-16T23:23:40.439Z,3.90
2019-02-16T23:26:08.858Z,3.90
2019-02-16T23:28:39.220Z,3.80
2019-02-16T23:31:07.534Z,3.80
2019-02-16T23:33:35.937Z,3.80
2019-02-16T23:36:04.378Z,3.70
2019-02-16T23:38:32.785Z,3.70
2019-02-16T23:41:01.206Z,3.70
2019-02-16T23:43:29.649Z,3.80
2019-02-16T23:45:58.086Z,3.70
2019-02-16T23:48:26.510Z,3.70
2019-02-16T23:50:54.923Z,3.70
2019-02-16T23:53:23.347Z,3.60
2019-02-16T23:55:51.753Z,3.60
2019-02-16T23:58:20.198Z,3.60
